createdAt,value
2022-11-12T00:01:08.117Z,12.93
2022-11-12T00:03:34.856Z,14.03
2022-11-12T00:06:01.530Z,13.53
2022-11-12T00:08:28.665Z,12.57
2022-11-12T00:10:55.581Z,13.73
2022-11-12T00:13:22.455Z,12.47
2022-11-12T00:15:49.182Z,13.33
2022-11-12T00:18:15.892Z,13.80
2022-11-12T00:20:42.832Z,13.00
2022-11-12T00:23:09.547Z,13.23
2022-11-12T00:25:36.313Z,13.37
2022-11-12T00:28:08.613Z,13.07
2022-11-12T00:30:38.545Z,12.57
2022-11-12T00:33:05.919Z,12.63
2022-11-12T00:35:33.558Z,12.40
2022-11-12T00:38:01.320Z,13.30
2022-11-12T00:40:28.521Z,13.37
2022-11-12T00:42:55.341Z,13.33
2022-11-12T00:45:22.258Z,13.40
2022-11-12T00:47:48.964Z,16.27
2022-11-12T00:50:16.369Z,14.23
2022-11-12T00:52:43.645Z,15.50
2022-11-12T00:55:10.691Z,12.97
2022-11-12T00:57:37.433Z,13.43
2022-11-12T01:00:06.309Z,14.87
2022-11-12T01:02:37.003Z,15.20
2022-11-12T01:05:08.432Z,15.27
2022-11-12T01:07:35.122Z,14.27
2022-11-12T01:10:01.806Z,13.53
2022-11-12T01:12:31.464Z,14.77
2022-11-12T01:14:58.187Z,13.73
2022-11-12T01:17:24.853Z,12.90
2022-11-12T01:19:51.608Z,13.13
2022-11-12T01:22:19.076Z,15.63
2022-11-12T01:24:45.747Z,14.13
2022-11-12T01:27:12.394Z,14.27
2022-11-12T01:29:39.061Z,14.47
2022-11-12T01:32:05.908Z,13.70
2022-11-12T01:34:33.041Z,14.23
2022-11-12T01:37:00.204Z,13.63
2022-11-12T01:39:26.866Z,13.37
2022-11-12T01:41:53.707Z,13.27
2022-11-12T01:44:29.712Z,14.53
2022-11-12T01:47:14.334Z,13.30
2022-11-12T01:49:55.070Z,11.60
2022-11-12T01:52:34.960Z,12.97
2022-11-12T01:55:09.872Z,14.63
2022-11-12T01:57:45.301Z,14.30
2022-11-12T02:00:13.434Z,13.30
2022-11-12T02:02:40.712Z,13.00
2022-11-12T02:05:10.379Z,12.17
2022-11-12T02:07:39.708Z,12.73
2022-11-12T02:10:08.998Z,13.50
2022-11-12T02:12:55.012Z,13.13
2022-11-12T02:19:11.719Z,13.37
2022-11-12T02:21:39.013Z,14.40
2022-11-12T02:24:14.483Z,14.77
2022-11-12T02:26:45.285Z,14.07
2022-11-12T02:29:12.047Z,14.03
2022-11-12T02:31:38.973Z,14.47
2022-11-12T02:34:05.709Z,13.63
2022-11-12T02:36:32.355Z,13.87
2022-11-12T02:38:59.199Z,16.40
2022-11-12T02:41:26.003Z,13.10
2022-11-12T02:43:52.767Z,15.57
2022-11-12T02:46:19.465Z,13.47
2022-11-12T02:48:46.751Z,15.73
2022-11-12T02:51:13.453Z,15.93
2022-11-12T02:53:40.146Z,12.80
2022-11-12T02:56:07.161Z,16.07
2022-11-12T02:58:33.860Z,12.97
2022-11-12T03:01:00.564Z,13.53
2022-11-12T03:03:27.278Z,13.20
2022-11-12T03:05:59.935Z,15.27
2022-11-12T03:08:27.605Z,13.93
2022-11-12T03:10:54.578Z,13.13
2022-11-12T03:13:21.444Z,14.50
2022-11-12T03:15:48.240Z,17.20
2022-11-12T03:18:15.341Z,14.57
2022-11-12T03:20:42.113Z,17.37
2022-11-12T03:23:11.186Z,17.53
2022-11-12T03:25:38.381Z,16.27
2022-11-12T03:28:08.376Z,15.57
2022-11-12T03:30:37.611Z,14.60
2022-11-12T03:33:05.417Z,13.50
2022-11-12T03:35:33.685Z,13.13
2022-11-12T03:38:01.528Z,13.70
2022-11-12T03:40:29.037Z,12.73
2022-11-12T03:42:56.175Z,12.53
2022-11-12T03:45:24.936Z,12.93
2022-11-12T03:47:54.296Z,11.63
2022-11-12T03:50:23.294Z,13.57
2022-11-12T03:52:52.966Z,12.70
2022-11-12T03:55:21.796Z,12.93
2022-11-12T03:57:50.060Z,12.83
2022-11-12T04:00:17.909Z,12.50
2022-11-12T04:02:44.748Z,12.60
2022-11-12T04:05:30.175Z,11.23
2022-11-12T04:08:35.958Z,12.53
2022-11-12T04:11:16.525Z,11.70
2022-11-12T04:13:47.490Z,12.77
2022-11-12T04:16:41.970Z,11.13
2022-11-12T04:19:30.433Z,11.20
2022-11-12T04:22:03.652Z,11.50
2022-11-12T04:24:50.085Z,11.37
2022-11-12T04:27:20.367Z,11.33
2022-11-12T04:30:07.205Z,10.97
2022-11-12T04:32:36.528Z,10.93
2022-11-12T04:35:04.015Z,10.20
2022-11-12T04:37:44.483Z,12.07
2022-11-12T04:40:35.190Z,11.13
2022-11-12T04:43:21.571Z,10.60
2022-11-12T04:45:51.821Z,10.60
2022-11-12T04:48:19.811Z,11.40
2022-11-12T04:50:49.837Z,10.50
2022-11-12T04:53:16.573Z,10.13
2022-11-12T04:55:43.231Z,11.52
2022-11-12T04:58:10.257Z,10.73
2022-11-12T05:00:36.935Z,10.37
2022-11-12T05:03:03.713Z,9.57
2022-11-12T05:05:33.807Z,10.13
2022-11-12T05:08:02.318Z,9.73
2022-11-12T05:10:29.637Z,9.67
2022-11-12T05:12:56.329Z,10.33
2022-11-12T05:15:23.106Z,9.53
2022-11-12T05:17:49.879Z,10.03
2022-11-12T05:20:17.711Z,10.83
2022-11-12T05:22:59.041Z,10.13
2022-11-12T05:25:31.088Z,10.40
2022-11-12T05:27:57.761Z,10.30
2022-11-12T05:30:24.438Z,10.00
2022-11-12T05:32:51.262Z,12.50
2022-11-12T05:35:17.923Z,13.57
2022-11-12T05:37:44.674Z,12.73
2022-11-12T05:40:12.042Z,10.87
2022-11-12T05:42:38.707Z,11.17
2022-11-12T05:45:06.124Z,10.53
2022-11-12T05:47:32.780Z,9.97
2022-11-12T05:49:59.440Z,11.00
2022-11-12T05:52:26.112Z,8.70
2022-11-12T05:54:52.791Z,10.93
2022-11-12T05:57:19.459Z,11.70
2022-11-12T05:59:46.146Z,11.33
2022-11-12T06:02:12.854Z,9.80
2022-11-12T06:04:39.565Z,11.57
2022-11-12T06:07:06.313Z,11.00
2022-11-12T06:09:33.019Z,11.03
2022-11-12T06:11:59.762Z,10.17
2022-11-12T06:14:26.439Z,11.43
2022-11-12T06:16:53.126Z,10.50
2022-11-12T06:19:19.776Z,11.80
2022-11-12T06:21:46.523Z,11.87
2022-11-12T06:24:13.538Z,12.10
2022-11-12T06:26:40.336Z,11.23
2022-11-12T06:29:07.008Z,10.57
2022-11-12T06:31:33.699Z,9.70
2022-11-12T06:34:00.357Z,8.07
2022-11-12T06:36:27.068Z,9.13
2022-11-12T06:38:53.808Z,9.97
2022-11-12T06:41:20.504Z,8.67
2022-11-12T06:43:47.200Z,10.07
2022-11-12T06:46:15.610Z,8.70
2022-11-12T06:48:42.511Z,7.43
2022-11-12T06:51:18.019Z,9.43
2022-11-12T06:53:45.330Z,7.83
2022-11-12T06:56:13.356Z,7.17
2022-11-12T06:58:40.366Z,9.23
2022-11-12T07:01:13.105Z,11.20
2022-11-12T07:03:41.864Z,8.90
2022-11-12T07:06:14.458Z,9.03
2022-11-12T07:08:42.356Z,9.70
2022-11-12T07:11:09.745Z,7.20
2022-11-12T07:13:37.186Z,8.03
2022-11-12T07:16:06.404Z,8.30
2022-11-12T07:18:34.383Z,9.00
2022-11-12T07:21:03.212Z,10.10
2022-11-12T07:23:31.589Z,7.50
2022-11-12T07:26:02.133Z,7.63
2022-11-12T07:28:29.916Z,7.17
2022-11-12T07:31:02.331Z,7.43
2022-11-12T07:33:30.143Z,7.17
2022-11-12T07:36:01.742Z,7.43
2022-11-12T07:38:29.923Z,7.73
2022-11-12T07:41:00.439Z,7.57
2022-11-12T07:43:28.419Z,6.63
2022-11-12T07:45:58.798Z,6.83
2022-11-12T07:48:25.947Z,6.77
2022-11-12T07:50:53.023Z,6.90
2022-11-12T07:53:19.716Z,6.43
2022-11-12T07:55:54.578Z,9.77
2022-11-12T07:58:21.533Z,11.27
2022-11-12T08:00:48.262Z,8.10
2022-11-12T08:03:14.991Z,6.93
2022-11-12T08:05:41.755Z,8.40
2022-11-12T08:08:08.524Z,10.30
2022-11-12T08:10:35.328Z,5.30
2022-11-12T08:13:01.985Z,6.03
2022-11-12T08:15:28.650Z,8.97
2022-11-12T08:17:55.332Z,9.33
2022-11-12T08:20:22.177Z,6.10
2022-11-12T08:22:49.664Z,5.83
2022-11-12T08:25:16.764Z,7.10
2022-11-12T08:27:43.432Z,7.73
2022-11-12T08:30:10.851Z,6.03
2022-11-12T08:32:37.574Z,7.70
2022-11-12T08:35:04.512Z,6.90
2022-11-12T08:37:31.184Z,8.70
2022-11-12T08:39:57.913Z,7.70
2022-11-12T08:42:24.644Z,7.47
2022-11-12T08:44:51.299Z,6.63
2022-11-12T08:47:17.976Z,10.37
2022-11-12T08:49:48.010Z,7.90
2022-11-12T08:52:15.034Z,6.87
2022-11-12T08:54:41.692Z,6.00
2022-11-12T08:57:08.351Z,7.17
2022-11-12T08:59:35.032Z,6.13
2022-11-12T09:02:01.718Z,6.23
2022-11-12T09:04:28.701Z,6.40
2022-11-12T09:06:55.505Z,5.37
2022-11-12T09:09:22.265Z,5.90
2022-11-12T09:11:48.930Z,4.80
2022-11-12T09:14:15.755Z,4.40
2022-11-12T09:16:42.444Z,4.37
2022-11-12T09:19:09.192Z,4.57
2022-11-12T09:21:35.888Z,3.73
2022-11-12T09:24:03.229Z,4.30
2022-11-12T09:26:29.878Z,5.20
2022-11-12T09:28:56.534Z,5.03
2022-11-12T09:31:25.649Z,6.50
2022-11-12T09:33:52.396Z,5.73
2022-11-12T09:36:19.158Z,5.93
2022-11-12T09:38:45.875Z,5.30
2022-11-12T09:41:35.970Z,4.60
2022-11-12T09:44:24.182Z,4.33
2022-11-12T09:47:18.949Z,4.23
2022-11-12T09:49:50.340Z,4.20
2022-11-12T09:52:27.034Z,5.60
2022-11-12T09:55:09.826Z,4.37
2022-11-12T09:57:36.593Z,4.73
2022-11-12T10:00:09.747Z,4.33
2022-11-12T10:02:43.073Z,4.17
2022-11-12T10:05:09.742Z,4.80
2022-11-12T10:08:14.833Z,4.43
2022-11-12T10:10:48.773Z,4.93
2022-11-12T10:13:48.637Z,5.47
2022-11-12T10:16:43.671Z,5.30
2022-11-12T10:19:38.352Z,6.03
2022-11-12T10:22:32.145Z,6.50
2022-11-12T10:25:10.292Z,7.57
2022-11-12T10:27:40.689Z,8.90
2022-11-12T10:30:20.724Z,8.63
2022-11-12T10:32:48.599Z,9.23
2022-11-12T10:35:21.380Z,9.43
2022-11-12T10:37:53.715Z,8.73
2022-11-12T10:40:29.023Z,9.83
2022-11-12T10:43:18.997Z,9.13
2022-11-12T10:45:47.311Z,9.07
2022-11-12T10:48:27.171Z,7.90
2022-11-12T10:50:54.938Z,6.95
2022-11-12T10:53:40.587Z,6.65
2022-11-12T10:56:29.339Z,6.10
2022-11-12T10:59:17.204Z,6.20
2022-11-12T11:01:46.124Z,6.57
2022-11-12T11:04:22.547Z,6.30
2022-11-12T11:07:02.546Z,6.78
2022-11-12T11:09:29.734Z,6.63
2022-11-12T11:11:56.481Z,7.55
2022-11-12T11:14:23.195Z,6.97
2022-11-12T11:16:56.582Z,6.88
2022-11-12T11:19:30.586Z,8.27
2022-11-12T11:22:19.958Z,7.22
2022-11-12T11:25:21.346Z,14.40
2022-11-12T11:28:05.090Z,12.07
2022-11-12T11:30:32.551Z,8.88
2022-11-12T11:33:25.567Z,8.18
2022-11-12T11:36:02.263Z,7.00
2022-11-12T11:39:10.910Z,6.82
2022-11-12T11:41:59.470Z,9.07
2022-11-12T11:44:38.772Z,6.93
2022-11-12T11:47:18.832Z,7.28
2022-11-12T11:49:59.745Z,34.58
2022-11-12T11:53:06.640Z,27.38
2022-11-12T11:55:42.420Z,40.10
2022-11-12T11:58:15.112Z,12.75
2022-11-12T12:00:55.989Z,7.90
2022-11-12T12:03:32.931Z,8.07
2022-11-12T12:06:20.735Z,8.03
2022-11-12T12:09:04.925Z,7.37
2022-11-12T12:12:06.430Z,9.27
2022-11-12T12:15:09.077Z,9.47
2022-11-12T12:17:35.804Z,8.70
2022-11-12T12:20:14.880Z,7.70
2022-11-12T12:22:49.083Z,8.53
2022-11-12T12:25:24.922Z,8.10
2022-11-12T12:28:23.389Z,8.57
2022-11-12T12:30:52.720Z,8.53
2022-11-12T12:33:39.696Z,11.77
2022-11-12T12:36:15.117Z,9.60
2022-11-12T12:39:10.064Z,11.37
2022-11-12T12:41:58.322Z,9.70
2022-11-12T12:44:50.031Z,11.80
2022-11-12T12:47:19.338Z,10.30
2022-11-12T12:49:48.374Z,10.83
2022-11-12T12:52:18.216Z,11.73
2022-11-12T12:54:51.042Z,11.70
2022-11-12T12:57:34.933Z,11.90
2022-11-12T13:00:30.422Z,13.23
2022-11-12T13:02:57.402Z,14.07
2022-11-12T13:05:30.103Z,13.13
2022-11-12T13:08:02.590Z,13.73
2022-11-12T13:10:41.763Z,14.90
2022-11-12T13:13:17.457Z,13.93
2022-11-12T13:15:46.910Z,15.17
2022-11-12T13:18:38.402Z,15.07
2022-11-12T13:21:08.118Z,29.00
2022-11-12T13:24:07.996Z,26.20
2022-11-12T13:26:47.545Z,18.63
2022-11-12T13:29:29.739Z,19.43
2022-11-12T13:32:27.421Z,19.67
2022-11-12T13:35:15.330Z,21.50
2022-11-12T13:37:47.573Z,21.40
2022-11-12T13:40:40.579Z,19.90
2022-11-12T13:43:17.686Z,21.40
2022-11-12T13:45:52.306Z,20.13
2022-11-12T13:48:33.793Z,21.47
2022-11-12T13:51:11.714Z,20.67
2022-11-12T13:53:38.587Z,20.57
2022-11-12T13:56:05.550Z,20.90
2022-11-12T13:58:34.602Z,20.07
2022-11-12T14:01:03.823Z,19.87
2022-11-12T14:03:51.710Z,21.57
2022-11-12T14:06:56.841Z,20.83
2022-11-12T14:09:31.490Z,22.80
2022-11-12T14:12:01.377Z,22.30
2022-11-12T14:14:50.549Z,22.67
2022-11-12T14:17:56.768Z,24.63
2022-11-12T14:20:37.060Z,23.80
2022-11-12T14:23:12.165Z,24.93
2022-11-12T14:25:57.116Z,25.50
2022-11-12T14:28:32.205Z,25.90
2022-11-12T14:31:00.811Z,22.77
2022-11-12T14:33:29.716Z,23.50
2022-11-12T14:36:01.559Z,22.27
2022-11-12T14:38:38.104Z,21.43
2022-11-12T14:41:33.023Z,22.53
2022-11-12T14:44:12.809Z,22.10
2022-11-12T14:46:47.943Z,21.80
2022-11-12T14:49:40.640Z,22.87
2022-11-12T14:52:18.079Z,23.50
2022-11-12T14:54:54.933Z,25.03
2022-11-12T14:57:28.000Z,29.03
2022-11-12T14:59:55.905Z,31.93
2022-11-12T15:02:37.615Z,33.73
2022-11-12T15:05:15.815Z,33.23
2022-11-12T15:08:12.189Z,30.00
2022-11-12T15:10:43.023Z,24.97
2022-11-12T15:13:17.675Z,24.90
2022-11-12T15:16:09.863Z,26.23
2022-11-12T15:18:40.528Z,23.83
2022-11-12T15:21:13.020Z,22.03
2022-11-12T15:24:09.329Z,22.67
2022-11-12T15:26:37.259Z,23.07
2022-11-12T15:29:25.059Z,22.60
2022-11-12T15:31:59.760Z,23.33
2022-11-12T15:34:41.495Z,25.23
2022-11-12T15:37:10.397Z,23.27
2022-11-12T15:39:47.854Z,25.07
2022-11-12T15:42:41.615Z,25.53
2022-11-12T15:45:16.681Z,26.87
2022-11-12T15:47:43.740Z,28.50
2022-11-12T15:50:13.514Z,27.60
2022-11-12T15:52:41.104Z,27.03
2022-11-12T15:55:09.599Z,25.00
2022-11-12T15:57:41.963Z,24.73
2022-11-12T16:00:15.528Z,24.87
2022-11-12T16:02:43.059Z,24.60
2022-11-12T16:05:14.563Z,24.37
2022-11-12T16:07:41.371Z,24.63
2022-11-12T16:10:16.521Z,26.77
2022-11-12T16:12:44.025Z,25.50
2022-11-12T16:15:19.224Z,26.30
2022-11-12T16:17:47.005Z,26.50
2022-11-12T16:20:21.247Z,25.13
2022-11-12T16:22:48.757Z,27.00
2022-11-12T16:25:15.898Z,26.17
2022-11-12T16:27:42.907Z,25.47
2022-11-12T16:30:24.675Z,24.40
2022-11-12T16:32:51.405Z,24.90
2022-11-12T16:35:18.547Z,25.87
2022-11-12T16:37:46.793Z,24.97
2022-11-12T16:40:20.363Z,27.10
2022-11-12T16:42:47.180Z,31.77
2022-11-12T16:45:15.835Z,39.53
2022-11-12T16:47:48.595Z,37.13
2022-11-12T16:50:18.156Z,36.20
2022-11-12T16:52:45.136Z,34.97
2022-11-12T16:55:11.855Z,32.37
2022-11-12T16:57:38.806Z,33.23
2022-11-12T17:00:07.353Z,31.93
2022-11-12T17:02:36.861Z,32.80
2022-11-12T17:05:18.188Z,31.50
2022-11-12T17:07:44.908Z,29.03
2022-11-12T17:10:11.954Z,27.83
2022-11-12T17:12:39.114Z,29.40
2022-11-12T17:15:06.807Z,31.73
2022-11-12T17:17:33.706Z,31.77
2022-11-12T17:20:00.565Z,30.47
2022-11-12T17:22:27.489Z,31.37
2022-11-12T17:24:54.173Z,30.20
2022-11-12T17:27:20.926Z,30.13
2022-11-12T17:29:47.648Z,27.60
2022-11-12T17:32:14.324Z,28.47
2022-11-12T17:34:41.187Z,27.63
2022-11-12T17:37:08.429Z,26.67
2022-11-12T17:39:35.203Z,31.37
2022-11-12T17:42:01.919Z,28.40
2022-11-12T17:44:28.706Z,33.97
2022-11-12T17:46:55.408Z,33.00
2022-11-12T17:49:22.127Z,33.87
2022-11-12T17:51:48.922Z,30.80
2022-11-12T17:54:15.616Z,29.63
2022-11-12T17:56:42.674Z,31.13
2022-11-12T17:59:09.438Z,37.13
2022-11-12T18:01:36.205Z,39.67
2022-11-12T18:04:03.094Z,43.77
2022-11-12T18:06:34.477Z,40.90
2022-11-12T18:09:11.884Z,39.47
2022-11-12T18:11:50.239Z,39.83
2022-11-12T18:14:17.278Z,38.17
2022-11-12T18:16:45.008Z,39.70
2022-11-12T18:19:12.774Z,38.83
2022-11-12T18:21:40.417Z,38.87
2022-11-12T18:24:12.140Z,38.17
2022-11-12T18:26:39.164Z,31.80
2022-11-12T18:29:07.351Z,27.80
2022-11-12T18:31:34.146Z,26.50
2022-11-12T18:34:00.929Z,27.77
2022-11-12T18:36:29.136Z,26.30
2022-11-12T18:38:56.028Z,25.40
2022-11-12T18:41:26.650Z,22.60
2022-11-12T18:43:54.246Z,24.90
2022-11-12T18:46:21.157Z,24.17
2022-11-12T18:48:48.262Z,24.00
2022-11-12T18:51:16.751Z,24.43
2022-11-12T18:53:43.945Z,21.50
2022-11-12T18:56:15.912Z,24.20
2022-11-12T18:58:43.191Z,25.50
2022-11-12T19:01:20.612Z,23.23
2022-11-12T19:03:48.498Z,23.47
2022-11-12T19:06:16.654Z,24.93
2022-11-12T19:08:43.385Z,22.93
2022-11-12T19:11:12.707Z,27.80
2022-11-12T19:13:40.188Z,24.27
2022-11-12T19:16:11.707Z,24.70
2022-11-12T19:18:39.892Z,24.40
2022-11-12T19:21:13.086Z,25.60
2022-11-12T19:23:41.298Z,24.30
2022-11-12T19:26:10.913Z,22.63
2022-11-12T19:28:38.216Z,22.13
2022-11-12T19:31:07.235Z,22.60
2022-11-12T19:33:34.457Z,22.93
2022-11-12T19:36:06.666Z,24.43
2022-11-12T19:38:34.017Z,24.43
2022-11-12T19:41:18.706Z,22.03
2022-11-12T19:43:46.337Z,20.90
2022-11-12T19:46:13.478Z,24.03
2022-11-12T19:48:40.314Z,24.53
2022-11-12T19:51:09.035Z,22.67
2022-11-12T19:53:40.826Z,23.73
2022-11-12T19:56:08.107Z,23.77
2022-11-12T19:58:34.819Z,23.63
2022-11-12T20:01:13.397Z,21.17
2022-11-12T20:03:40.539Z,19.07
2022-11-12T20:06:16.062Z,19.37
2022-11-12T20:08:42.824Z,20.27
2022-11-12T20:11:10.196Z,20.53
2022-11-12T20:13:36.936Z,19.97
2022-11-12T20:16:14.374Z,20.80
2022-11-12T20:18:41.178Z,22.50
2022-11-12T20:21:09.259Z,22.97
2022-11-12T20:23:37.123Z,22.77
2022-11-12T20:26:10.289Z,23.33
2022-11-12T20:28:38.576Z,23.13
2022-11-12T20:31:17.035Z,40.47
2022-11-12T20:33:43.974Z,28.70
2022-11-12T20:36:13.288Z,29.07
2022-11-12T20:38:42.626Z,37.20
2022-11-12T20:41:22.573Z,31.10
2022-11-12T20:43:52.982Z,26.23
2022-11-12T20:46:20.014Z,24.67
2022-11-12T20:48:46.914Z,24.93
2022-11-12T20:51:24.592Z,26.80
2022-11-12T20:53:58.807Z,23.10
2022-11-12T20:56:28.363Z,19.57
2022-11-12T20:58:55.109Z,18.53
2022-11-12T21:01:23.634Z,21.37
2022-11-12T21:03:50.689Z,17.60
2022-11-12T21:06:20.202Z,21.77
2022-11-12T21:08:47.152Z,19.93
2022-11-12T21:11:16.254Z,22.00
2022-11-12T21:13:43.590Z,18.73
2022-11-12T21:16:13.396Z,23.23
2022-11-12T21:18:40.678Z,21.00
2022-11-12T21:21:13.008Z,20.23
2022-11-12T21:23:43.516Z,20.00
2022-11-12T21:26:16.298Z,18.30
2022-11-12T21:28:45.060Z,23.63
2022-11-12T21:31:14.953Z,18.90
2022-11-12T21:33:41.951Z,18.33
2022-11-12T21:36:14.760Z,16.40
2022-11-12T21:38:43.165Z,18.37
2022-11-12T21:41:13.551Z,17.07
2022-11-12T21:43:43.364Z,18.10
2022-11-12T21:46:17.053Z,18.57
2022-11-12T21:48:44.411Z,17.73
2022-11-12T21:51:13.741Z,18.07
2022-11-12T21:53:41.385Z,16.37
2022-11-12T21:56:14.484Z,18.20
2022-11-12T21:58:42.045Z,16.87
2022-11-12T22:01:22.290Z,18.10
2022-11-12T22:03:50.579Z,21.07
2022-11-12T22:06:19.224Z,21.13
2022-11-12T22:08:46.211Z,19.90
2022-11-12T22:11:17.892Z,19.30
2022-11-12T22:13:45.905Z,20.13
2022-11-12T22:16:24.594Z,20.07
2022-11-12T22:18:53.681Z,18.70
2022-11-12T22:21:30.698Z,18.97
2022-11-12T22:24:00.125Z,18.90
2022-11-12T22:26:28.570Z,18.83
2022-11-12T22:28:57.231Z,19.50
2022-11-12T22:31:29.793Z,19.57
2022-11-12T22:33:58.438Z,19.20
2022-11-12T22:36:27.822Z,17.60
2022-11-12T22:38:56.010Z,18.37
2022-11-12T22:41:24.325Z,17.47
2022-11-12T22:43:53.450Z,18.53
2022-11-12T22:46:25.186Z,16.93
2022-11-12T22:48:52.152Z,16.37
2022-11-12T22:51:24.207Z,16.93
2022-11-12T22:53:59.456Z,16.37
2022-11-12T22:56:27.299Z,15.70
2022-11-12T22:58:54.840Z,15.37
2022-11-12T23:01:27.863Z,17.10
2022-11-12T23:03:56.518Z,15.93
2022-11-12T23:06:24.023Z,15.33
2022-11-12T23:08:52.427Z,16.13
2022-11-12T23:11:20.075Z,15.63
2022-11-12T23:13:48.030Z,14.57
2022-11-12T23:16:17.622Z,13.87
2022-11-12T23:18:45.058Z,16.10
2022-11-12T23:21:20.681Z,14.93
2022-11-12T23:23:47.584Z,15.40
2022-11-12T23:26:15.717Z,14.87
2022-11-12T23:28:42.773Z,14.13
2022-11-12T23:31:12.917Z,15.57
2022-11-12T23:33:43.342Z,13.43
2022-11-12T23:36:11.291Z,13.13
2022-11-12T23:38:38.173Z,14.17
2022-11-12T23:41:05.305Z,13.70
2022-11-12T23:43:32.418Z,16.03
2022-11-12T23:45:59.347Z,16.00
2022-11-12T23:48:26.884Z,14.67
2022-11-12T23:51:08.032Z,14.67
2022-11-12T23:53:36.098Z,14.63
2022-11-12T23:56:04.146Z,16.33
2022-11-12T23:58:32.085Z,16.00
